Lincoln Park, Pennsylvania
Current Conditions -  °F | °C
As of 8:54 PM on Friday 24 Oct 2014 (Local Time) from KRDG Reporting Station
Clear Clear  
Wind Chill: 58°   Ceiling: Unl
Heat Index: 58°   Visibility: 10mi
Dew Point: 37°   Wind: 8mph
Humidity: 46%   Direction: 270°W
Pressure: 29.88"   Gusts: NA
Location:  40.3275°N, 75.9966°W
Report Text: KRDG 250054Z AUTO 27007KT 10SM CLR 14/03 A2988 RMK AO2 SLP121 T01440028
Loading
Personal Weather Stations






























Interactive Weather Map
Tropical Storm Tracking
New forecast layout! Learn more

10-Day Weather Forecast

Advertisements
Track Severe Weather on mobile